createdAt,value
2018-09-03T00:02:23.432Z,90.00
2018-09-03T00:04:52.272Z,90.30
2018-09-03T00:07:21.258Z,90.20
2018-09-03T00:09:49.856Z,90.10
2018-09-03T00:12:18.444Z,90.40
2018-09-03T00:14:46.817Z,90.40
2018-09-03T00:17:15.284Z,90.60
2018-09-03T00:19:43.886Z,90.80
2018-09-03T00:22:12.604Z,90.80
2018-09-03T00:24:41.000Z,91.00
2018-09-03T00:27:09.544Z,91.00
2018-09-03T00:29:37.920Z,91.00
2018-09-03T00:32:12.052Z,91.20
2018-09-03T00:34:45.739Z,91.40
2018-09-03T00:37:19.941Z,92.40
2018-09-03T00:39:53.840Z,93.50
2018-09-03T00:42:27.536Z,94.00
2018-09-03T00:45:01.389Z,95.80
2018-09-03T00:47:29.749Z,95.60
2018-09-03T00:49:58.317Z,94.10
2018-09-03T00:52:26.840Z,93.50
2018-09-03T00:54:55.385Z,92.60
2018-09-03T00:57:23.921Z,92.30
2018-09-03T00:59:52.631Z,96.20
2018-09-03T01:02:21.293Z,97.90
2018-09-03T01:04:49.912Z,96.70
2018-09-03T01:07:18.348Z,96.00
2018-09-03T01:09:46.728Z,98.10
2018-09-03T01:12:15.729Z,99.90
2018-09-03T01:14:44.155Z,99.90
2018-09-03T01:17:12.651Z,99.90
2018-09-03T01:19:41.097Z,93.90
2018-09-03T01:22:09.715Z,93.10
2018-09-03T01:24:38.407Z,93.10
2018-09-03T01:27:07.859Z,93.20
2018-09-03T01:29:36.480Z,93.20
2018-09-03T01:32:05.005Z,93.30
2018-09-03T01:34:33.376Z,93.50
2018-09-03T01:37:01.756Z,93.60
2018-09-03T01:39:30.809Z,93.70
2018-09-03T01:41:59.396Z,93.60
2018-09-03T01:44:27.812Z,93.50
2018-09-03T01:46:57.313Z,93.60
2018-09-03T01:49:25.756Z,93.60
2018-09-03T01:51:54.137Z,93.60
2018-09-03T01:54:22.639Z,93.50
2018-09-03T01:56:51.022Z,93.70
2018-09-03T01:59:20.149Z,93.70
2018-09-03T02:01:48.520Z,93.70
2018-09-03T02:04:17.129Z,94.00
2018-09-03T02:06:45.832Z,94.00
2018-09-03T02:09:14.624Z,93.80
2018-09-03T02:11:43.044Z,93.90
2018-09-03T02:14:11.426Z,94.00
2018-09-03T02:16:39.822Z,93.90
2018-09-03T02:19:08.915Z,94.00
2018-09-03T02:21:37.688Z,93.80
2018-09-03T02:24:06.284Z,93.70
2018-09-03T02:26:34.909Z,93.80
2018-09-03T02:29:03.622Z,93.90
2018-09-03T02:31:32.105Z,93.90
2018-09-03T02:34:01.085Z,93.80
2018-09-03T02:36:29.484Z,93.90
2018-09-03T02:38:58.088Z,93.70
2018-09-03T02:41:26.652Z,93.80
2018-09-03T02:43:55.248Z,93.90
2018-09-03T02:46:23.945Z,93.80
2018-09-03T02:48:52.886Z,93.90
2018-09-03T02:51:21.332Z,94.00
2018-09-03T02:53:49.718Z,94.10
2018-09-03T02:56:19.262Z,94.10
2018-09-03T02:58:48.327Z,94.50
2018-09-03T03:01:16.837Z,94.20
2018-09-03T03:03:45.256Z,94.10
2018-09-03T03:06:14.229Z,94.40
2018-09-03T03:08:43.252Z,94.40
2018-09-03T03:11:11.649Z,94.60
2018-09-03T03:13:41.286Z,94.80
2018-09-03T03:16:10.090Z,94.80
2018-09-03T03:18:38.630Z,94.60
2018-09-03T03:21:07.296Z,94.60
2018-09-03T03:23:35.873Z,94.80
2018-09-03T03:26:04.343Z,94.60
2018-09-03T03:28:32.754Z,94.50
2018-09-03T03:31:01.725Z,94.80
2018-09-03T03:33:30.300Z,94.50
2018-09-03T03:35:58.669Z,94.80
2018-09-03T03:38:27.816Z,94.90
2018-09-03T03:40:56.205Z,94.80
2018-09-03T03:43:24.740Z,94.50
2018-09-03T03:45:53.203Z,94.70
2018-09-03T03:48:21.708Z,94.90
2018-09-03T03:50:50.302Z,94.80
2018-09-03T03:53:18.705Z,94.60
2018-09-03T03:55:47.137Z,94.70
2018-09-03T03:58:15.540Z,94.90
2018-09-03T04:00:44.940Z,95.10
2018-09-03T04:03:13.308Z,95.10
2018-09-03T04:05:41.696Z,95.00
2018-09-03T04:08:10.069Z,94.80
2018-09-03T04:10:39.415Z,95.10
2018-09-03T04:13:08.456Z,95.10
2018-09-03T04:15:36.945Z,95.30
2018-09-03T04:18:05.976Z,95.30
2018-09-03T04:20:34.534Z,95.90
2018-09-03T04:23:04.648Z,95.90
2018-09-03T04:25:33.190Z,97.70
2018-09-03T04:28:01.837Z,96.90
2018-09-03T04:30:30.344Z,99.90
2018-09-03T04:32:59.006Z,99.90
2018-09-03T04:35:27.574Z,99.90
2018-09-03T04:37:56.228Z,99.90
2018-09-03T04:40:24.816Z,99.90
2018-09-03T04:42:53.728Z,99.90
2018-09-03T04:45:22.141Z,99.90
2018-09-03T04:47:50.598Z,99.90
2018-09-03T04:50:19.720Z,99.90
2018-09-03T04:52:48.608Z,99.90
2018-09-03T04:55:17.468Z,99.90
2018-09-03T04:57:46.483Z,99.90
2018-09-03T05:00:15.861Z,96.80
2018-09-03T05:02:44.783Z,96.40
2018-09-03T05:05:13.198Z,96.50
2018-09-03T05:07:41.739Z,96.40
2018-09-03T05:10:10.244Z,96.70
2018-09-03T05:12:38.817Z,96.40
2018-09-03T05:15:07.268Z,98.20
2018-09-03T05:17:35.820Z,99.90
2018-09-03T05:20:04.842Z,99.90
2018-09-03T05:22:33.208Z,99.90
2018-09-03T05:25:01.593Z,99.90
2018-09-03T05:27:29.965Z,99.90
2018-09-03T05:29:58.673Z,99.90
2018-09-03T05:32:27.188Z,97.10
2018-09-03T05:34:55.664Z,99.90
2018-09-03T05:37:24.060Z,99.90
2018-09-03T05:39:52.668Z,99.90
2018-09-03T05:42:21.113Z,99.90
2018-09-03T05:44:49.740Z,99.90
2018-09-03T05:47:18.452Z,99.90
2018-09-03T05:49:47.200Z,99.90
2018-09-03T05:52:15.769Z,99.90
2018-09-03T05:54:44.308Z,98.30
2018-09-03T05:57:12.808Z,98.50
2018-09-03T05:59:41.257Z,98.60
2018-09-03T06:02:09.739Z,98.90
2018-09-03T06:04:38.273Z,99.10
2018-09-03T06:07:06.794Z,99.90
2018-09-03T06:09:35.201Z,96.00
2018-09-03T06:12:03.773Z,96.20
2018-09-03T06:14:32.252Z,96.40
2018-09-03T06:17:00.989Z,95.90
2018-09-03T06:19:29.469Z,96.10
2018-09-03T06:21:57.843Z,96.20
2018-09-03T06:24:26.441Z,96.30
2018-09-03T06:26:56.066Z,96.10
2018-09-03T06:29:25.232Z,96.30
2018-09-03T06:31:53.789Z,96.00
2018-09-03T06:34:22.480Z,96.40
2018-09-03T06:36:50.878Z,96.70
2018-09-03T06:39:19.732Z,96.30
2018-09-03T06:41:48.109Z,96.60
2018-09-03T06:44:16.499Z,96.40
2018-09-03T06:46:45.344Z,96.10
2018-09-03T06:49:14.242Z,96.50
2018-09-03T06:51:42.657Z,96.40
2018-09-03T06:54:11.052Z,95.80
2018-09-03T06:56:39.749Z,95.80
2018-09-03T06:59:08.121Z,95.60
2018-09-03T07:01:37.001Z,95.20
2018-09-03T07:04:05.490Z,94.90
2018-09-03T07:06:34.375Z,95.10
2018-09-03T07:09:02.853Z,99.60
2018-09-03T07:11:31.362Z,98.40
2018-09-03T07:13:59.869Z,98.40
2018-09-03T07:16:28.297Z,97.10
2018-09-03T07:18:56.767Z,97.00
2018-09-03T07:21:25.157Z,96.50
2018-09-03T07:23:53.741Z,96.50
2018-09-03T07:26:22.660Z,96.40
2018-09-03T07:28:51.613Z,95.90
2018-09-03T07:31:19.986Z,95.80
2018-09-03T07:33:48.508Z,95.80
2018-09-03T07:36:17.169Z,95.20
2018-09-03T07:38:45.812Z,95.20
2018-09-03T07:41:14.192Z,95.10
2018-09-03T07:43:42.790Z,94.90
2018-09-03T07:46:11.156Z,95.10
2018-09-03T07:48:39.692Z,95.80
2018-09-03T07:51:08.783Z,95.20
2018-09-03T07:53:37.195Z,94.80
2018-09-03T07:56:06.392Z,95.00
2018-09-03T07:58:34.916Z,95.40
2018-09-03T08:01:03.537Z,95.60
2018-09-03T08:03:31.992Z,95.40
2018-09-03T08:08:53.417Z,90.10
2018-09-03T08:11:22.365Z,87.20
2018-09-03T08:13:51.288Z,85.60
2018-09-03T08:16:19.665Z,83.00
2018-09-03T08:18:48.161Z,82.30
2018-09-03T08:21:16.718Z,80.90
2018-09-03T08:23:45.516Z,81.20
2018-09-03T08:26:13.992Z,76.10
2018-09-03T08:28:42.740Z,72.00
2018-09-03T08:31:11.309Z,72.70
2018-09-03T08:33:39.869Z,79.10
2018-09-03T08:36:08.413Z,65.40
2018-09-03T08:38:37.684Z,63.20
2018-09-03T08:41:06.422Z,62.20
2018-09-03T08:43:35.099Z,59.10
2018-09-03T08:46:03.737Z,60.00
2018-09-03T08:48:32.809Z,59.20
2018-09-03T08:51:01.873Z,58.80
2018-09-03T08:53:30.294Z,56.40
2018-09-03T08:55:58.688Z,56.90
2018-09-03T08:58:27.217Z,58.20
2018-09-03T09:00:56.186Z,55.20
2018-09-03T09:03:30.037Z,56.30
2018-09-03T09:05:58.753Z,57.50
2018-09-03T09:08:27.237Z,56.70
2018-09-03T09:10:55.736Z,53.90
2018-09-03T09:13:24.419Z,56.80
2018-09-03T09:15:52.904Z,55.50
2018-09-03T09:18:21.460Z,55.50
2018-09-03T09:20:51.052Z,56.00
2018-09-03T09:23:20.581Z,54.80
2018-09-03T09:25:49.195Z,55.40
2018-09-03T09:28:17.784Z,56.60
2018-09-03T09:30:47.406Z,55.00
2018-09-03T09:33:16.798Z,56.40
2018-09-03T09:35:45.430Z,57.60
2018-09-03T09:38:13.938Z,58.20
2018-09-03T09:40:42.369Z,57.80
2018-09-03T09:43:11.020Z,56.50
2018-09-03T09:45:40.042Z,55.10
2018-09-03T09:48:09.109Z,56.60
2018-09-03T09:50:37.697Z,54.70
2018-09-03T09:53:06.507Z,53.40
2018-09-03T09:55:35.168Z,53.30
2018-09-03T09:58:04.192Z,57.10
2018-09-03T10:00:38.014Z,55.90
2018-09-03T10:03:06.601Z,57.60
2018-09-03T10:05:35.065Z,57.00
2018-09-03T10:08:03.500Z,56.80
2018-09-03T10:10:32.037Z,56.70
2018-09-03T10:13:00.480Z,55.30
2018-09-03T10:15:29.597Z,55.60
2018-09-03T10:17:58.003Z,57.00
2018-09-03T10:20:26.392Z,58.50
2018-09-03T10:22:54.925Z,57.80
2018-09-03T10:25:24.029Z,56.70
2018-09-03T10:27:53.323Z,59.70
2018-09-03T10:30:22.117Z,61.80
2018-09-03T10:32:50.529Z,62.20
2018-09-03T10:35:18.964Z,58.10
2018-09-03T10:37:47.422Z,56.30
2018-09-03T10:40:15.804Z,58.00
2018-09-03T10:42:44.313Z,59.70
2018-09-03T10:45:12.889Z,61.30
2018-09-03T10:47:42.140Z,60.80
2018-09-03T10:50:10.578Z,60.80
2018-09-03T10:52:39.252Z,59.60
2018-09-03T10:55:07.805Z,61.90
2018-09-03T10:57:36.705Z,63.10
2018-09-03T11:00:05.620Z,64.20
2018-09-03T11:02:34.203Z,64.00
2018-09-03T11:05:03.338Z,64.40
2018-09-03T11:07:31.860Z,66.70
2018-09-03T11:10:00.509Z,67.00
2018-09-03T11:12:29.088Z,65.70
2018-09-03T11:14:58.563Z,63.90
2018-09-03T11:17:27.037Z,63.60
2018-09-03T11:19:58.011Z,62.40
2018-09-03T11:22:27.075Z,63.80
2018-09-03T11:24:56.852Z,63.60
2018-09-03T11:27:25.237Z,63.50
2018-09-03T11:29:53.629Z,64.20
2018-09-03T11:32:22.008Z,65.40
2018-09-03T11:34:50.604Z,64.90
2018-09-03T11:37:19.232Z,64.70
2018-09-03T11:39:47.778Z,64.80
2018-09-03T11:42:17.085Z,64.40
2018-09-03T11:44:45.776Z,65.20
2018-09-03T11:47:14.552Z,66.00
2018-09-03T11:49:43.905Z,66.40
2018-09-03T11:52:12.464Z,63.90
2018-09-03T11:54:40.924Z,62.00
2018-09-03T11:57:10.314Z,61.00
2018-09-03T11:59:38.846Z,59.10
2018-09-03T12:02:07.507Z,58.80
2018-09-03T12:04:36.128Z,58.40
2018-09-03T12:07:04.923Z,55.90
2018-09-03T12:09:33.486Z,55.10
2018-09-03T12:12:03.084Z,54.20
2018-09-03T12:14:35.042Z,54.60
2018-09-03T12:17:03.657Z,53.40
2018-09-03T12:19:32.431Z,53.50
2018-09-03T12:22:01.033Z,51.80
2018-09-03T12:24:29.813Z,50.70
2018-09-03T12:26:58.364Z,51.80
2018-09-03T12:29:26.749Z,52.00
2018-09-03T12:31:55.436Z,52.30
2018-09-03T12:34:23.868Z,52.20
2018-09-03T12:36:52.468Z,52.20
2018-09-03T12:39:21.052Z,53.80
2018-09-03T12:41:49.473Z,54.60
2018-09-03T12:44:18.572Z,55.10
2018-09-03T12:46:47.129Z,54.80
2018-09-03T12:49:15.809Z,53.90
2018-09-03T12:51:44.412Z,54.40
2018-09-03T12:54:13.085Z,57.10
2018-09-03T12:56:41.883Z,57.90
2018-09-03T12:59:10.480Z,57.00
2018-09-03T13:01:39.744Z,56.80
2018-09-03T13:04:08.237Z,56.90
2018-09-03T13:06:36.766Z,57.10
2018-09-03T13:09:07.186Z,57.10
2018-09-03T13:11:36.265Z,56.90
2018-09-03T13:14:04.756Z,57.70
2018-09-03T13:16:33.900Z,58.60
2018-09-03T13:19:02.388Z,58.10
2018-09-03T13:21:30.803Z,57.10
2018-09-03T13:23:59.284Z,55.30
2018-09-03T13:26:27.780Z,55.20
2018-09-03T13:28:56.170Z,56.50
2018-09-03T13:31:25.761Z,56.30
2018-09-03T13:33:54.333Z,57.70
2018-09-03T13:36:22.792Z,57.10
2018-09-03T13:38:51.192Z,57.50
2018-09-03T13:41:19.591Z,58.50
2018-09-03T13:43:48.178Z,56.80
2018-09-03T13:46:16.869Z,56.80
2018-09-03T13:48:46.065Z,56.90
2018-09-03T13:51:14.484Z,56.10
2018-09-03T13:53:42.869Z,56.80
2018-09-03T13:56:12.253Z,56.20
2018-09-03T13:58:40.641Z,54.50
2018-09-03T14:01:09.263Z,55.60
2018-09-03T14:03:37.928Z,54.30
2018-09-03T14:06:06.710Z,54.60
2018-09-03T14:08:35.964Z,53.10
2018-09-03T14:11:04.533Z,54.00
2018-09-03T14:13:33.131Z,53.20
2018-09-03T14:16:01.701Z,53.10
2018-09-03T14:18:31.413Z,52.70
2018-09-03T14:20:59.924Z,51.80
2018-09-03T14:23:28.566Z,51.60
2018-09-03T14:25:57.265Z,49.30
2018-09-03T14:28:26.505Z,50.30
2018-09-03T14:30:54.892Z,49.90
2018-09-03T14:33:23.291Z,51.00
2018-09-03T14:35:51.932Z,49.00
2018-09-03T14:38:20.489Z,47.90
2018-09-03T14:40:49.163Z,47.90
2018-09-03T14:43:17.597Z,49.60
2018-09-03T14:45:46.756Z,51.00
2018-09-03T14:48:15.173Z,52.60
2018-09-03T14:50:43.756Z,51.20
2018-09-03T14:53:12.287Z,49.90
2018-09-03T14:55:41.490Z,49.40
2018-09-03T14:58:09.872Z,46.30
2018-09-03T15:00:39.113Z,46.70
2018-09-03T15:03:07.636Z,47.20
2018-09-03T15:05:36.331Z,46.40
2018-09-03T15:08:05.244Z,46.20
2018-09-03T15:10:33.701Z,45.20
2018-09-03T15:13:02.172Z,44.90
2018-09-03T15:15:30.697Z,43.50
2018-09-03T15:17:59.373Z,44.60
2018-09-03T15:20:27.993Z,41.80
2018-09-03T15:22:57.126Z,43.70
2018-09-03T15:25:25.651Z,42.20
2018-09-03T15:27:54.194Z,41.90
2018-09-03T15:30:23.215Z,43.30
2018-09-03T15:32:51.700Z,45.00
2018-09-03T15:35:20.158Z,46.90
2018-09-03T15:37:48.559Z,47.60
2018-09-03T15:40:17.484Z,46.90
2018-09-03T15:42:46.623Z,47.40
2018-09-03T15:45:15.132Z,48.30
2018-09-03T15:47:44.316Z,49.70
2018-09-03T15:50:12.734Z,50.80
2018-09-03T15:52:41.424Z,51.30
2018-09-03T15:55:10.377Z,50.90
2018-09-03T15:57:38.909Z,51.10
2018-09-03T16:00:08.732Z,51.30
2018-09-03T16:02:37.687Z,52.40
2018-09-03T16:05:06.143Z,52.10
2018-09-03T16:07:34.648Z,52.80
2018-09-03T16:10:03.084Z,52.70
2018-09-03T16:12:31.618Z,52.70
2018-09-03T16:15:01.223Z,53.00
2018-09-03T16:17:29.807Z,53.10
2018-09-03T16:19:58.264Z,54.20
2018-09-03T16:22:26.744Z,52.90
2018-09-03T16:24:55.508Z,53.40
2018-09-03T16:27:25.089Z,54.20
2018-09-03T16:29:53.745Z,54.50
2018-09-03T16:32:23.288Z,54.30
2018-09-03T16:34:51.822Z,55.20
2018-09-03T16:37:20.828Z,55.50
2018-09-03T16:39:49.232Z,55.20
2018-09-03T16:42:17.647Z,56.50
2018-09-03T16:44:46.184Z,56.50
2018-09-03T16:47:15.448Z,56.20
2018-09-03T16:49:43.913Z,57.40
2018-09-03T16:52:12.561Z,57.90
2018-09-03T16:54:41.708Z,57.00
2018-09-03T16:57:10.196Z,57.30
2018-09-03T16:59:38.568Z,56.90
2018-09-03T17:02:07.038Z,57.10
2018-09-03T17:04:35.572Z,56.90
2018-09-03T17:07:04.286Z,57.50
2018-09-03T17:09:33.225Z,57.50
2018-09-03T17:12:01.905Z,57.50
2018-09-03T17:14:31.517Z,57.60
2018-09-03T17:17:00.219Z,58.40
2018-09-03T17:19:28.673Z,57.20
2018-09-03T17:21:57.511Z,57.30
2018-09-03T17:24:26.071Z,58.50
2018-09-03T17:26:54.643Z,59.30
2018-09-03T17:29:23.280Z,58.70
2018-09-03T17:31:52.037Z,59.10
2018-09-03T17:34:20.676Z,60.40
2018-09-03T17:36:49.254Z,59.90
2018-09-03T17:39:18.268Z,59.50
2018-09-03T17:41:46.872Z,59.90
2018-09-03T17:44:15.321Z,59.50
2018-09-03T17:46:44.365Z,60.50
2018-09-03T17:49:13.950Z,61.40
2018-09-03T17:51:42.375Z,61.70
2018-09-03T17:54:11.000Z,63.10
2018-09-03T17:56:40.020Z,61.60
2018-09-03T17:59:08.701Z,61.80
2018-09-03T18:01:37.384Z,62.60
2018-09-03T18:04:05.926Z,63.00
2018-09-03T18:06:34.452Z,63.60
2018-09-03T18:09:02.997Z,64.50
2018-09-03T18:11:31.588Z,64.90
2018-09-03T18:14:00.108Z,64.40
2018-09-03T18:16:28.680Z,65.40
2018-09-03T18:18:57.188Z,65.40
2018-09-03T18:21:25.741Z,65.00
2018-09-03T18:23:54.446Z,65.20
2018-09-03T18:26:23.432Z,64.50
2018-09-03T18:28:52.478Z,65.60
2018-09-03T18:31:21.573Z,65.10
2018-09-03T18:33:50.089Z,65.40
2018-09-03T18:36:18.808Z,65.20
2018-09-03T18:38:47.369Z,65.40
2018-09-03T18:41:15.796Z,66.40
2018-09-03T18:43:44.912Z,66.00
2018-09-03T18:46:14.330Z,65.90
2018-09-03T18:48:43.373Z,66.00
2018-09-03T18:51:12.046Z,66.30
2018-09-03T18:53:40.457Z,66.10
2018-09-03T18:56:10.084Z,66.10
2018-09-03T18:58:38.529Z,67.20
2018-09-03T19:01:07.730Z,67.00
2018-09-03T19:03:36.393Z,66.80
2018-09-03T19:06:05.597Z,68.20
2018-09-03T19:08:34.054Z,67.30
2018-09-03T19:11:02.471Z,68.40
2018-09-03T19:13:31.013Z,68.00
2018-09-03T19:15:59.421Z,67.50
2018-09-03T19:18:28.006Z,68.50
2018-09-03T19:20:56.541Z,66.80
2018-09-03T19:23:25.078Z,66.20
2018-09-03T19:25:53.509Z,66.70
2018-09-03T19:28:22.536Z,67.30
2018-09-03T19:30:51.154Z,68.50
2018-09-03T19:33:19.595Z,68.10
2018-09-03T19:35:48.576Z,68.20
2018-09-03T19:38:17.161Z,68.00
2018-09-03T19:40:45.988Z,68.30
2018-09-03T19:43:14.482Z,68.90
2018-09-03T19:45:43.041Z,69.50
2018-09-03T19:48:11.618Z,70.00
2018-09-03T19:50:40.876Z,70.20
2018-09-03T19:53:09.412Z,70.00
2018-09-03T19:55:37.896Z,69.80
2018-09-03T19:58:06.406Z,70.70
2018-09-03T20:00:34.813Z,71.80
2018-09-03T20:03:03.276Z,71.50
2018-09-03T20:05:31.702Z,72.60
2018-09-03T20:08:00.248Z,74.00
2018-09-03T20:10:29.482Z,73.10
2018-09-03T20:12:57.920Z,72.90
2018-09-03T20:15:27.597Z,74.20
2018-09-03T20:17:56.369Z,74.40
2018-09-03T20:20:25.630Z,74.90
2018-09-03T20:22:54.812Z,75.00
2018-09-03T20:25:23.408Z,74.70
2018-09-03T20:27:52.444Z,75.80
2018-09-03T20:30:22.336Z,75.90
2018-09-03T20:32:51.424Z,76.00
2018-09-03T20:35:19.945Z,76.50
2018-09-03T20:37:48.358Z,76.60
2018-09-03T20:40:17.569Z,76.60
2018-09-03T20:42:46.055Z,77.50
2018-09-03T20:45:14.983Z,77.60
2018-09-03T20:47:43.402Z,78.00
2018-09-03T20:50:12.005Z,78.50
2018-09-03T20:52:41.184Z,78.70
2018-09-03T20:55:09.709Z,79.00
2018-09-03T20:57:38.801Z,79.10
2018-09-03T21:00:07.620Z,80.20
2018-09-03T21:02:36.372Z,80.50
2018-09-03T21:05:05.513Z,80.80
2018-09-03T21:07:34.000Z,81.00
2018-09-03T21:10:02.947Z,81.00
2018-09-03T21:12:31.724Z,81.40
2018-09-03T21:15:00.629Z,82.40
2018-09-03T21:17:29.376Z,81.80
2018-09-03T21:19:58.058Z,82.60
2018-09-03T21:22:26.721Z,82.20
2018-09-03T21:24:55.109Z,82.70
2018-09-03T21:27:24.103Z,83.40
2018-09-03T21:29:53.290Z,83.70
2018-09-03T21:32:21.784Z,83.80
2018-09-03T21:34:50.864Z,84.50
2018-09-03T21:37:19.464Z,84.20
2018-09-03T21:39:47.856Z,84.60
2018-09-03T21:42:16.561Z,85.00
2018-09-03T21:44:45.041Z,85.10
2018-09-03T21:47:13.484Z,85.50
2018-09-03T21:49:41.881Z,85.40
2018-09-03T21:52:10.400Z,84.80
2018-09-03T21:54:38.904Z,90.10
2018-09-03T21:57:07.423Z,90.30
2018-09-03T21:59:35.842Z,90.00
2018-09-03T22:02:07.489Z,90.00
2018-09-03T22:04:36.636Z,89.20
2018-09-03T22:07:05.212Z,87.40
2018-09-03T22:09:33.716Z,86.60
2018-09-03T22:12:02.192Z,85.90
2018-09-03T22:14:30.688Z,85.70
2018-09-03T22:16:59.486Z,86.00
2018-09-03T22:19:28.763Z,86.00
2018-09-03T22:21:57.162Z,85.70
2018-09-03T22:24:25.855Z,86.00
2018-09-03T22:26:54.527Z,85.10
2018-09-03T22:29:23.384Z,85.20
2018-09-03T22:31:51.815Z,85.20
2018-09-03T22:34:20.208Z,85.60
2018-09-03T22:36:48.976Z,85.20
2018-09-03T22:39:18.556Z,85.50
